sensor_id;sensor_type;location;lat;lon;timestamp;pressure;altitude;pressure_sealevel;temperature;humidity
9229;BME280;4649;42.644;23.284;2023-07-24T00:05:07;93239.66;;;20.72;58.01
9229;BME280;4649;42.644;23.284;2023-07-24T00:20:59;93223.91;;;20.57;58.94
9229;BME280;4649;42.644;23.284;2023-07-24T00:23:43;93205.56;;;20.30;59.51
9229;BME280;4649;42.644;23.284;2023-07-24T00:26:34;93201.19;;;20.27;60.28
9229;BME280;4649;42.644;23.284;2023-07-24T00:29:40;93197.69;;;20.19;59.89
9229;BME280;4649;42.644;23.284;2023-07-24T00:35:28;93268.09;;;20.67;60.04
9229;BME280;4649;42.644;23.284;2023-07-24T01:01:33;93188.34;;;20.07;58.07
9229;BME280;4649;42.644;23.284;2023-07-24T01:04:23;93220.22;;;20.25;55.59
9229;BME280;4649;42.644;23.284;2023-07-24T01:07:07;93260.91;;;20.34;55.23
9229;BME280;4649;42.644;23.284;2023-07-24T01:09:49;93231.25;;;20.18;53.49
9229;BME280;4649;42.644;23.284;2023-07-24T01:12:26;93196.00;;;19.86;53.83
9229;BME280;4649;42.644;23.284;2023-07-24T01:15:08;93232.31;;;20.15;55.31
9229;BME280;4649;42.644;23.284;2023-07-24T01:18:11;93185.34;;;19.83;54.91
9229;BME280;4649;42.644;23.284;2023-07-24T01:20:57;93161.69;;;19.65;55.00
9229;BME280;4649;42.644;23.284;2023-07-24T01:23:49;93163.38;;;19.68;53.98
9229;BME280;4649;42.644;23.284;2023-07-24T01:26:28;93199.50;;;19.94;53.62
9229;BME280;4649;42.644;23.284;2023-07-24T01:28:57;93326.59;;;20.82;54.45
9229;BME280;4649;42.644;23.284;2023-07-24T01:31:39;93222.03;;;20.00;54.51
9229;BME280;4649;42.644;23.284;2023-07-24T01:34:20;93166.13;;;19.10;55.83
9229;BME280;4649;42.644;23.284;2023-07-24T01:36:57;93161.66;;;19.00;57.05
9229;BME280;4649;42.644;23.284;2023-07-24T01:39:31;93205.41;;;19.48;55.32
9229;BME280;4649;42.644;23.284;2023-07-24T01:42:31;93210.84;;;19.26;57.23
9229;BME280;4649;42.644;23.284;2023-07-24T01:44:59;93205.69;;;19.22;59.55
9229;BME280;4649;42.644;23.284;2023-07-24T01:47:29;93246.78;;;19.43;59.72
9229;BME280;4649;42.644;23.284;2023-07-24T01:50:01;93309.88;;;19.78;57.81
9229;BME280;4649;42.644;23.284;2023-07-24T01:52:37;93306.75;;;19.74;60.63
9229;BME280;4649;42.644;23.284;2023-07-24T01:55:08;93320.22;;;19.92;58.66
9229;BME280;4649;42.644;23.284;2023-07-24T01:57:37;93191.59;;;19.18;57.16
9229;BME280;4649;42.644;23.284;2023-07-24T02:00:11;93258.19;;;19.61;57.01
9229;BME280;4649;42.644;23.284;2023-07-24T02:02:41;93192.44;;;19.06;56.38
9229;BME280;4649;42.644;23.284;2023-07-24T02:05:11;93214.84;;;19.25;54.96
9229;BME280;4649;42.644;23.284;2023-07-24T02:07:41;93240.66;;;19.29;54.67
9229;BME280;4649;42.644;23.284;2023-07-24T02:10:09;93205.00;;;18.94;56.12
9229;BME280;4649;42.644;23.284;2023-07-24T02:12:42;93176.88;;;18.73;57.21
9229;BME280;4649;42.644;23.284;2023-07-24T02:15:17;93175.69;;;18.54;60.84
9229;BME280;4649;42.644;23.284;2023-07-24T02:17:59;93206.81;;;18.99;60.34
9229;BME280;4649;42.644;23.284;2023-07-24T02:20:37;93240.13;;;19.31;65.00
9229;BME280;4649;42.644;23.284;2023-07-24T02:23:18;93341.88;;;20.11;65.36
9229;BME280;4649;42.644;23.284;2023-07-24T02:25:55;93295.50;;;19.92;58.51
9229;BME280;4649;42.644;23.284;2023-07-24T02:28:46;93192.25;;;19.47;57.58
9229;BME280;4649;42.644;23.284;2023-07-24T02:31:17;93173.88;;;19.27;58.24
9229;BME280;4649;42.644;23.284;2023-07-24T02:33:47;93265.69;;;20.11;58.32
9229;BME280;4649;42.644;23.284;2023-07-24T02:36:28;93233.16;;;19.80;58.09
9229;BME280;4649;42.644;23.284;2023-07-24T02:38:57;93338.44;;;20.32;58.55
9229;BME280;4649;42.644;23.284;2023-07-24T02:41:34;93270.69;;;19.77;58.57
9229;BME280;4649;42.644;23.284;2023-07-24T02:44:05;93188.47;;;19.14;63.00
9229;BME280;4649;42.644;23.284;2023-07-24T02:46:34;93309.16;;;19.85;58.20
9229;BME280;4649;42.644;23.284;2023-07-24T02:49:06;93170.53;;;19.13;57.03
9229;BME280;4649;42.644;23.284;2023-07-24T02:51:47;93185.63;;;19.35;56.32
9229;BME280;4649;42.644;23.284;2023-07-24T02:54:26;93229.44;;;19.62;56.78
9229;BME280;4649;42.644;23.284;2023-07-24T02:57:05;93344.06;;;20.12;57.24
9229;BME280;4649;42.644;23.284;2023-07-24T02:59:43;93169.59;;;18.76;56.54
9229;BME280;4649;42.644;23.284;2023-07-24T03:02:20;93210.13;;;18.70;55.31
9229;BME280;4649;42.644;23.284;2023-07-24T03:04:50;93175.84;;;18.48;57.10
9229;BME280;4649;42.644;23.284;2023-07-24T03:07:18;93272.28;;;19.23;58.46
9229;BME280;4649;42.644;23.284;2023-07-24T03:10:02;93263.22;;;19.35;57.68
9229;BME280;4649;42.644;23.284;2023-07-24T03:12:30;93212.97;;;19.12;56.75
9229;BME280;4649;42.644;23.284;2023-07-24T03:15:08;93162.72;;;18.90;56.63
9229;BME280;4649;42.644;23.284;2023-07-24T03:17:43;93316.97;;;20.09;56.16
9229;BME280;4649;42.644;23.284;2023-07-24T03:20:18;93226.28;;;19.44;56.24
9229;BME280;4649;42.644;23.284;2023-07-24T03:23:02;93163.44;;;18.90;56.33
9229;BME280;4649;42.644;23.284;2023-07-24T03:25:44;93248.25;;;19.44;55.33
9229;BME280;4649;42.644;23.284;2023-07-24T03:28:27;93166.47;;;18.72;57.16
9229;BME280;4649;42.644;23.284;2023-07-24T03:31:11;93237.88;;;19.22;59.84
9229;BME280;4649;42.644;23.284;2023-07-24T03:34:25;93265.09;;;19.55;59.73
9229;BME280;4649;42.644;23.284;2023-07-24T03:37:03;93234.13;;;19.40;61.43
9229;BME280;4649;42.644;23.284;2023-07-24T03:39:35;93257.41;;;19.54;66.49
9229;BME280;4649;42.644;23.284;2023-07-24T03:42:09;93281.09;;;19.64;64.11
9229;BME280;4649;42.644;23.284;2023-07-24T03:44:38;93176.66;;;18.99;64.13
9229;BME280;4649;42.644;23.284;2023-07-24T03:47:12;93231.19;;;19.02;62.21
9229;BME280;4649;42.644;23.284;2023-07-24T03:49:41;93321.03;;;19.72;65.72
9229;BME280;4649;42.644;23.284;2023-07-24T03:52:13;93324.47;;;19.65;65.03
9229;BME280;4649;42.644;23.284;2023-07-24T03:54:55;93247.13;;;18.76;64.03
9229;BME280;4649;42.644;23.284;2023-07-24T03:57:23;93259.66;;;18.64;66.58
9229;BME280;4649;42.644;23.284;2023-07-24T03:59:51;93334.56;;;19.35;68.67
9229;BME280;4649;42.644;23.284;2023-07-24T04:02:19;93236.94;;;18.84;66.46
9229;BME280;4649;42.644;23.284;2023-07-24T04:04:48;93274.03;;;19.41;67.47
9229;BME280;4649;42.644;23.284;2023-07-24T04:07:18;93192.50;;;19.13;67.84
9229;BME280;4649;42.644;23.284;2023-07-24T04:09:45;93242.41;;;19.55;69.31
9229;BME280;4649;42.644;23.284;2023-07-24T04:12:13;93323.56;;;20.13;71.30
9229;BME280;4649;42.644;23.284;2023-07-24T04:14:43;93211.34;;;19.67;70.07
9229;BME280;4649;42.644;23.284;2023-07-24T04:17:10;93199.53;;;20.09;68.89
9229;BME280;4649;42.644;23.284;2023-07-24T04:19:42;93349.66;;;21.61;70.78
9229;BME280;4649;42.644;23.284;2023-07-24T04:28:48;93198.72;;;21.05;75.83
9229;BME280;4649;42.644;23.284;2023-07-24T04:31:22;93199.66;;;20.93;74.88
9229;BME280;4649;42.644;23.284;2023-07-24T04:34:09;93270.31;;;22.06;69.11
9229;BME280;4649;42.644;23.284;2023-07-24T04:37:40;93190.16;;;22.77;69.34
9229;BME280;4649;42.644;23.284;2023-07-24T15:28:57;92962.38;;;32.22;23.28
9229;BME280;4649;42.644;23.284;2023-07-24T15:31:37;92923.16;;;31.91;23.08
9229;BME280;4649;42.644;23.284;2023-07-24T15:35:10;93003.38;;;32.46;24.00
9229;BME280;4649;42.644;23.284;2023-07-24T15:38:10;92860.34;;;31.48;25.41
9229;BME280;4649;42.644;23.284;2023-07-24T15:41:35;92866.81;;;31.37;25.04
9229;BME280;4649;42.644;23.284;2023-07-24T15:47:49;92939.25;;;31.75;25.03
9229;BME280;4649;42.644;23.284;2023-07-24T15:53:50;92886.13;;;31.31;26.38
9229;BME280;4649;42.644;23.284;2023-07-24T15:59:56;92937.16;;;31.60;25.56
9229;BME280;4649;42.644;23.284;2023-07-24T16:09:06;93000.00;;;32.02;26.09
9229;BME280;4649;42.644;23.284;2023-07-24T16:11:35;93000.38;;;31.81;28.52
9229;BME280;4649;42.644;23.284;2023-07-24T16:14:22;92910.25;;;31.09;27.18
9229;BME280;4649;42.644;23.284;2023-07-24T16:17:35;92919.13;;;31.19;26.54
9229;BME280;4649;42.644;23.284;2023-07-24T16:37:59;92876.25;;;30.15;31.22
9229;BME280;4649;42.644;23.284;2023-07-24T16:40:34;92993.16;;;30.89;32.04
9229;BME280;4649;42.644;23.284;2023-07-24T16:43:59;92885.13;;;30.12;31.42
9229;BME280;4649;42.644;23.284;2023-07-24T16:46:59;92970.75;;;30.61;31.03
9229;BME280;4649;42.644;23.284;2023-07-24T16:49:32;92932.41;;;30.21;31.25
9229;BME280;4649;42.644;23.284;2023-07-24T16:56:45;92863.41;;;29.57;31.50
9229;BME280;4649;42.644;23.284;2023-07-24T17:52:10;92960.84;;;28.31;38.18
9229;BME280;4649;42.644;23.284;2023-07-24T18:20:17;92939.31;;;27.51;36.61
9229;BME280;4649;42.644;23.284;2023-07-24T18:22:44;92919.47;;;27.22;37.48
9229;BME280;4649;42.644;23.284;2023-07-24T18:25:11;92992.94;;;27.74;39.44
9229;BME280;4649;42.644;23.284;2023-07-24T19:52:09;93007.16;;;26.82;40.61
